createdAt,value
2019-04-28T00:01:08.174Z,7.70
2019-04-28T00:03:35.482Z,8.80
2019-04-28T00:06:02.778Z,10.18
2019-04-28T00:08:31.748Z,8.45
2019-04-28T00:10:59.181Z,8.05
2019-04-28T00:13:26.490Z,9.33
2019-04-28T00:15:53.778Z,8.78
2019-04-28T00:18:22.005Z,9.38
2019-04-28T00:21:07.089Z,10.40
2019-04-28T00:23:51.219Z,9.90
2019-04-28T00:26:32.281Z,10.63
2019-04-28T00:29:01.214Z,9.25
2019-04-28T00:31:28.567Z,8.88
2019-04-28T00:33:55.873Z,8.10
2019-04-28T00:36:23.190Z,8.55
2019-04-28T00:38:51.502Z,8.20
2019-04-28T00:41:18.869Z,9.60
2019-04-28T00:43:46.185Z,8.20
2019-04-28T00:46:14.154Z,7.33
2019-04-28T00:48:41.432Z,6.60
2019-04-28T00:51:08.756Z,7.10
2019-04-28T00:53:36.059Z,8.33
2019-04-28T00:56:03.362Z,7.83
2019-04-28T00:58:31.909Z,8.68
2019-04-28T01:01:03.698Z,11.57
2019-04-28T01:03:32.133Z,10.43
2019-04-28T01:05:59.507Z,8.60
2019-04-28T01:08:26.818Z,8.05
2019-04-28T01:10:54.115Z,9.75
2019-04-28T01:13:23.714Z,8.05
2019-04-28T01:15:59.317Z,7.90
2019-04-28T01:18:29.968Z,8.98
2019-04-28T01:20:57.255Z,9.05
2019-04-28T01:23:24.530Z,7.78
2019-04-28T01:25:51.823Z,7.05
2019-04-28T01:28:19.638Z,7.58
2019-04-28T01:31:09.544Z,6.87
2019-04-28T01:33:40.531Z,7.03
2019-04-28T01:36:07.458Z,6.85
2019-04-28T01:38:34.774Z,7.53
2019-04-28T01:41:02.130Z,7.37
2019-04-28T01:43:31.214Z,7.05
2019-04-28T01:46:00.098Z,7.45
2019-04-28T01:48:27.457Z,6.20
2019-04-28T01:50:54.770Z,7.10
2019-04-28T01:53:22.063Z,7.53
2019-04-28T01:55:49.594Z,6.90
2019-04-28T01:58:16.972Z,7.30
2019-04-28T02:00:44.250Z,8.60
2019-04-28T02:03:11.564Z,9.25
2019-04-28T02:05:40.460Z,8.08
2019-04-28T02:08:07.843Z,7.95
2019-04-28T02:10:35.145Z,8.50
2019-04-28T02:13:02.429Z,6.50
2019-04-28T02:15:30.196Z,7.35
2019-04-28T02:17:57.625Z,7.25
2019-04-28T02:20:24.923Z,8.95
2019-04-28T02:23:02.539Z,7.45
2019-04-28T02:25:29.885Z,7.80
2019-04-28T02:27:57.249Z,6.90
2019-04-28T02:30:41.152Z,8.05
2019-04-28T02:32:53.465Z,8.55
2019-04-28T02:35:21.492Z,8.45
2019-04-28T02:37:50.403Z,8.80
2019-04-28T02:40:20.507Z,8.38
2019-04-28T02:42:46.815Z,8.23
2019-04-28T02:45:15.745Z,8.48
2019-04-28T02:47:43.199Z,8.43
2019-04-28T02:50:23.939Z,9.55
2019-04-28T02:53:04.902Z,7.90
2019-04-28T02:55:32.306Z,8.80
2019-04-28T02:58:01.446Z,10.82
2019-04-28T03:00:31.419Z,11.22
2019-04-28T03:02:57.683Z,9.65
2019-04-28T03:05:24.974Z,8.73
2019-04-28T03:07:52.271Z,8.55
2019-04-28T03:10:21.367Z,11.45
2019-04-28T03:12:51.332Z,12.07
2019-04-28T03:15:20.216Z,10.38
2019-04-28T03:17:46.451Z,10.68
2019-04-28T03:20:13.733Z,9.58
2019-04-28T03:22:41.216Z,12.10
2019-04-28T03:25:10.948Z,9.80
2019-04-28T03:27:42.720Z,11.75
2019-04-28T03:30:27.763Z,12.45
2019-04-28T03:33:04.975Z,10.90
2019-04-28T03:35:25.662Z,11.75
2019-04-28T03:37:53.001Z,11.25
2019-04-28T03:40:21.147Z,10.95
2019-04-28T03:42:51.156Z,10.35
2019-04-28T03:45:21.139Z,11.57
2019-04-28T03:47:50.730Z,16.75
2019-04-28T03:50:16.987Z,12.50
2019-04-28T03:52:44.281Z,10.85
2019-04-28T03:55:11.870Z,12.10
2019-04-28T03:57:41.197Z,13.10
2019-04-28T04:00:11.012Z,12.65
2019-04-28T04:02:40.879Z,15.55
2019-04-28T04:05:06.842Z,16.67
2019-04-28T04:07:34.133Z,11.48
2019-04-28T04:10:12.063Z,10.28
2019-04-28T04:12:41.399Z,12.73
2019-04-28T04:15:16.264Z,13.60
2019-04-28T04:17:47.933Z,10.38
2019-04-28T04:20:16.873Z,10.95
2019-04-28T04:22:44.171Z,10.15
2019-04-28T04:25:12.689Z,14.33
2019-04-28T04:27:40.703Z,11.85
2019-04-28T04:30:10.614Z,13.25
2019-04-28T04:32:37.005Z,14.40
2019-04-28T04:35:04.670Z,11.60
2019-04-28T04:37:31.961Z,13.03
2019-04-28T04:40:01.410Z,14.10
2019-04-28T04:42:30.616Z,13.28
2019-04-28T04:44:57.163Z,12.75
2019-04-28T04:47:24.505Z,12.43
2019-04-28T04:49:51.820Z,12.47
2019-04-28T04:52:20.294Z,12.85
2019-04-28T04:54:47.621Z,10.03
2019-04-28T04:57:14.948Z,10.55
2019-04-28T04:59:42.276Z,10.20
2019-04-28T05:02:19.260Z,12.37
2019-04-28T05:04:44.735Z,12.10
2019-04-28T05:07:12.043Z,12.63
2019-04-28T05:09:39.612Z,8.95
2019-04-28T05:12:06.858Z,12.15
2019-04-28T05:14:34.155Z,10.90
2019-04-28T05:17:01.498Z,11.93
2019-04-28T05:19:29.841Z,9.23
2019-04-28T05:21:57.169Z,9.50
2019-04-28T05:24:31.902Z,9.33
2019-04-28T05:26:59.635Z,8.33
2019-04-28T05:29:28.146Z,10.13
2019-04-28T05:32:01.831Z,11.65
2019-04-28T05:34:24.675Z,9.50
2019-04-28T05:36:51.956Z,10.70
2019-04-28T05:39:19.622Z,11.33
2019-04-28T05:41:47.049Z,11.20
2019-04-28T05:44:14.383Z,10.80
2019-04-28T05:46:41.721Z,10.72
2019-04-28T05:49:10.647Z,8.60
2019-04-28T05:51:40.241Z,10.48
2019-04-28T05:54:09.851Z,10.10
2019-04-28T05:56:39.753Z,10.20
2019-04-28T05:59:14.750Z,9.73
2019-04-28T06:02:00.467Z,9.10
2019-04-28T06:04:30.303Z,8.20
2019-04-28T06:07:01.909Z,9.80
2019-04-28T06:09:33.246Z,10.13
2019-04-28T06:12:00.547Z,9.10
2019-04-28T06:14:29.655Z,10.32
2019-04-28T06:16:56.795Z,9.48
2019-04-28T06:19:24.081Z,9.90
2019-04-28T06:21:51.398Z,8.75
2019-04-28T06:24:18.697Z,9.78
2019-04-28T06:26:46.017Z,10.38
2019-04-28T06:29:13.306Z,9.55
2019-04-28T06:31:40.597Z,9.93
2019-04-28T06:34:07.936Z,9.10
2019-04-28T06:36:35.236Z,9.90
2019-04-28T06:39:03.808Z,10.45
2019-04-28T06:41:31.106Z,10.43
2019-04-28T06:43:58.393Z,11.00
2019-04-28T06:46:25.733Z,9.50
2019-04-28T06:48:53.017Z,10.68
2019-04-28T06:51:20.310Z,12.18
2019-04-28T06:53:47.621Z,11.25
2019-04-28T06:56:14.921Z,9.08
2019-04-28T06:58:42.231Z,9.70
2019-04-28T07:01:09.525Z,11.45
2019-04-28T07:03:36.850Z,11.43
2019-04-28T07:06:04.142Z,10.95
2019-04-28T07:08:31.480Z,11.25
2019-04-28T07:10:58.768Z,11.22
2019-04-28T07:13:26.069Z,11.85
2019-04-28T07:15:53.404Z,11.18
2019-04-28T07:18:20.708Z,11.55
2019-04-28T07:20:58.471Z,11.20
2019-04-28T07:23:25.786Z,11.80
2019-04-28T07:25:53.068Z,11.22
2019-04-28T07:28:20.399Z,10.80
2019-04-28T07:30:47.723Z,11.12
2019-04-28T07:33:15.099Z,10.95
2019-04-28T07:35:42.423Z,10.28
2019-04-28T07:38:09.723Z,10.35
2019-04-28T07:40:37.031Z,11.88
2019-04-28T07:43:04.355Z,10.58
2019-04-28T07:45:31.673Z,9.75
2019-04-28T07:47:58.954Z,9.63
2019-04-28T07:50:26.283Z,9.23
2019-04-28T07:53:06.884Z,9.43
2019-04-28T07:55:34.199Z,9.83
2019-04-28T07:58:01.513Z,9.78
2019-04-28T08:00:30.371Z,9.83
2019-04-28T08:02:57.691Z,9.60
2019-04-28T08:05:25.018Z,10.35
2019-04-28T08:07:52.309Z,9.80
2019-04-28T08:10:19.632Z,9.65
2019-04-28T08:12:49.174Z,8.73
2019-04-28T08:15:15.881Z,10.32
2019-04-28T08:17:43.262Z,9.40
2019-04-28T08:20:10.566Z,10.53
2019-04-28T08:22:37.858Z,9.15
2019-04-28T08:25:05.922Z,9.50
2019-04-28T08:27:33.217Z,9.15
2019-04-28T08:30:00.519Z,8.85
2019-04-28T08:32:29.480Z,9.33
2019-04-28T08:34:56.782Z,8.95
2019-04-28T08:37:24.068Z,8.10
2019-04-28T08:39:51.395Z,8.28
2019-04-28T08:42:18.675Z,8.95
2019-04-28T08:44:45.962Z,8.88
2019-04-28T08:47:13.286Z,10.10
2019-04-28T08:49:40.581Z,9.50
2019-04-28T08:52:07.875Z,9.03
2019-04-28T08:54:35.181Z,8.48
2019-04-28T08:57:02.502Z,9.20
2019-04-28T08:59:29.803Z,7.83
2019-04-28T09:01:57.085Z,8.25
2019-04-28T09:04:24.388Z,7.78
2019-04-28T09:06:51.725Z,7.70
2019-04-28T09:09:20.640Z,8.33
2019-04-28T09:11:47.938Z,7.90
2019-04-28T09:14:15.249Z,6.62
2019-04-28T09:16:42.550Z,7.55
2019-04-28T09:19:09.843Z,6.42
2019-04-28T09:21:37.173Z,8.20
2019-04-28T09:24:04.468Z,7.72
2019-04-28T09:26:31.767Z,6.85
2019-04-28T09:28:59.078Z,7.00
2019-04-28T09:31:26.375Z,5.85
2019-04-28T09:33:53.659Z,5.80
2019-04-28T09:36:20.984Z,5.65
2019-04-28T09:38:48.348Z,4.85
2019-04-28T09:41:15.648Z,4.40
2019-04-28T09:44:02.718Z,4.65
2019-04-28T09:46:34.667Z,5.28
2019-04-28T09:49:01.953Z,6.42
2019-04-28T09:51:29.271Z,4.75
2019-04-28T09:53:56.587Z,5.95
2019-04-28T09:56:23.869Z,4.67
2019-04-28T09:58:51.170Z,4.12
2019-04-28T10:01:18.477Z,4.35
2019-04-28T10:03:45.770Z,4.65
2019-04-28T10:06:13.087Z,4.67
2019-04-28T10:08:40.365Z,3.40
2019-04-28T10:11:07.657Z,3.40
2019-04-28T10:13:34.982Z,3.75
2019-04-28T10:16:02.271Z,3.67
2019-04-28T10:18:29.556Z,4.25
2019-04-28T10:20:56.875Z,4.70
2019-04-28T10:23:24.161Z,3.92
2019-04-28T10:25:51.461Z,3.60
2019-04-28T10:28:18.778Z,4.42
2019-04-28T10:30:46.063Z,4.37
2019-04-28T10:33:13.347Z,4.80
2019-04-28T10:35:40.658Z,4.47
2019-04-28T10:38:07.953Z,4.25
2019-04-28T10:40:37.562Z,4.95
2019-04-28T10:43:05.112Z,4.90
2019-04-28T10:45:34.302Z,4.47
2019-04-28T10:48:01.831Z,5.90
2019-04-28T10:50:29.403Z,7.30
2019-04-28T10:52:56.907Z,4.30
2019-04-28T10:55:24.473Z,3.70
2019-04-28T10:57:52.004Z,3.92
2019-04-28T11:00:21.115Z,4.25
2019-04-28T11:02:48.677Z,4.30
2019-04-28T11:05:18.778Z,6.60
2019-04-28T11:07:46.344Z,3.98
2019-04-28T11:10:15.435Z,2.72
2019-04-28T11:12:42.967Z,3.35
2019-04-28T11:15:12.092Z,3.98
2019-04-28T11:17:39.378Z,3.55
2019-04-28T11:20:06.731Z,3.55
2019-04-28T11:22:34.046Z,3.35
2019-04-28T11:25:01.375Z,2.77
2019-04-28T11:27:28.840Z,3.33
2019-04-28T11:29:56.131Z,4.65
2019-04-28T11:32:23.455Z,2.62
2019-04-28T11:34:58.130Z,3.55
2019-04-28T11:37:25.415Z,2.65
2019-04-28T11:39:52.734Z,3.00
2019-04-28T11:42:20.020Z,2.92
2019-04-28T11:44:47.316Z,2.20
2019-04-28T11:47:16.435Z,3.00
2019-04-28T11:49:43.871Z,2.50
2019-04-28T11:52:11.421Z,2.30
2019-04-28T11:54:38.918Z,2.95
2019-04-28T11:57:06.481Z,7.45
2019-04-28T11:59:33.963Z,3.17
2019-04-28T12:02:01.476Z,4.35
2019-04-28T12:04:29.048Z,3.00
2019-04-28T12:06:56.557Z,4.40
2019-04-28T12:09:34.234Z,2.40
2019-04-28T12:12:08.568Z,1.50
2019-04-28T12:14:36.792Z,2.12
2019-04-28T12:17:21.697Z,4.75
2019-04-28T12:19:53.778Z,2.58
2019-04-28T12:22:21.301Z,3.87
2019-04-28T12:24:48.826Z,2.85
2019-04-28T12:27:16.405Z,3.85
2019-04-28T12:29:43.902Z,2.00
2019-04-28T12:32:11.437Z,1.77
2019-04-28T12:34:38.994Z,2.00
2019-04-28T12:37:06.524Z,2.43
2019-04-28T12:39:33.984Z,2.70
2019-04-28T12:42:01.502Z,2.13
2019-04-28T12:44:29.027Z,2.87
2019-04-28T12:46:56.284Z,3.20
2019-04-28T12:49:25.240Z,1.60
2019-04-28T12:51:52.522Z,2.60
2019-04-28T12:54:21.504Z,7.27
2019-04-28T12:56:48.866Z,4.57
2019-04-28T12:59:17.790Z,1.90
2019-04-28T13:01:49.385Z,2.40
2019-04-28T13:04:20.986Z,2.00
2019-04-28T13:07:04.402Z,2.20
2019-04-28T13:09:31.699Z,2.90
2019-04-28T13:11:58.975Z,1.47
2019-04-28T13:14:26.295Z,1.70
2019-04-28T13:16:53.652Z,1.53
2019-04-28T13:19:20.934Z,1.77
2019-04-28T13:21:48.256Z,3.30
2019-04-28T13:24:15.596Z,1.67
2019-04-28T13:26:42.885Z,2.00
2019-04-28T13:29:10.161Z,2.40
2019-04-28T13:31:37.480Z,1.57
2019-04-28T13:34:06.391Z,1.23
2019-04-28T13:36:33.684Z,2.03
2019-04-28T13:39:02.634Z,1.30
2019-04-28T13:41:29.953Z,1.90
2019-04-28T13:43:57.247Z,2.00
2019-04-28T13:46:24.535Z,1.50
2019-04-28T13:48:51.859Z,1.63
2019-04-28T13:51:19.155Z,1.70
2019-04-28T13:53:46.483Z,2.50
2019-04-28T13:56:13.757Z,2.23
2019-04-28T13:58:41.219Z,1.97
2019-04-28T14:01:15.967Z,1.60
2019-04-28T14:04:02.785Z,2.23
2019-04-28T14:06:31.733Z,1.57
2019-04-28T14:08:59.019Z,1.57
2019-04-28T14:11:26.364Z,1.90
2019-04-28T14:13:53.651Z,1.37
2019-04-28T14:16:20.927Z,1.40
2019-04-28T14:18:48.245Z,1.83
2019-04-28T14:21:15.522Z,2.00
2019-04-28T14:23:42.849Z,1.97
2019-04-28T14:26:10.126Z,1.97
2019-04-28T14:28:37.450Z,2.00
2019-04-28T14:31:04.763Z,1.80
2019-04-28T14:33:32.080Z,2.83
2019-04-28T14:35:59.358Z,1.90
2019-04-28T14:38:26.670Z,2.10
2019-04-28T14:40:53.974Z,2.30
2019-04-28T14:43:21.307Z,2.35
2019-04-28T14:45:48.541Z,1.90
2019-04-28T14:48:15.851Z,1.95
2019-04-28T14:50:43.172Z,1.72
2019-04-28T14:53:10.461Z,2.05
2019-04-28T14:55:37.778Z,1.62
2019-04-28T14:58:05.076Z,2.12
2019-04-28T15:00:34.004Z,1.75
2019-04-28T15:03:05.883Z,2.30
2019-04-28T15:05:50.881Z,2.92
2019-04-28T15:08:35.879Z,1.90
2019-04-28T15:11:07.266Z,2.52
2019-04-28T15:13:34.552Z,1.65
2019-04-28T15:16:01.916Z,2.08
2019-04-28T15:18:29.134Z,1.10
2019-04-28T15:20:56.423Z,1.77
2019-04-28T15:23:23.739Z,2.20
2019-04-28T15:25:51.024Z,2.20
2019-04-28T15:28:18.367Z,2.00
2019-04-28T15:30:45.663Z,2.05
2019-04-28T15:33:12.945Z,2.20
2019-04-28T15:35:40.266Z,2.50
2019-04-28T15:38:07.558Z,2.92
2019-04-28T15:40:34.856Z,2.55
2019-04-28T15:43:02.166Z,2.40
2019-04-28T15:45:29.463Z,2.30
2019-04-28T15:47:56.780Z,2.92
2019-04-28T15:50:25.262Z,2.02
2019-04-28T15:52:52.638Z,2.83
2019-04-28T15:55:24.305Z,2.60
2019-04-28T15:57:51.611Z,2.67
2019-04-28T16:00:18.886Z,2.92
2019-04-28T16:02:46.199Z,4.72
2019-04-28T16:05:13.483Z,3.50
2019-04-28T16:07:40.800Z,3.92
2019-04-28T16:10:08.086Z,4.95
2019-04-28T16:12:35.419Z,4.80
2019-04-28T16:15:02.963Z,5.75
2019-04-28T16:17:30.245Z,2.75
2019-04-28T16:19:57.554Z,5.67
2019-04-28T16:22:24.901Z,4.25
2019-04-28T16:24:52.248Z,3.60
2019-04-28T16:27:19.535Z,4.53
2019-04-28T16:29:47.178Z,3.20
2019-04-28T16:32:14.446Z,3.62
2019-04-28T16:34:41.749Z,2.67
2019-04-28T16:37:09.052Z,4.17
2019-04-28T16:39:36.342Z,1.80
2019-04-28T16:42:04.068Z,2.15
2019-04-28T16:44:31.743Z,2.70
2019-04-28T16:46:59.032Z,2.77
2019-04-28T16:49:26.323Z,3.05
2019-04-28T16:51:53.638Z,2.55
2019-04-28T16:54:20.928Z,4.05
2019-04-28T16:56:49.854Z,3.35
2019-04-28T16:59:34.992Z,2.72
2019-04-28T17:02:06.397Z,3.10
2019-04-28T17:04:33.763Z,2.60
2019-04-28T17:07:01.065Z,2.77
2019-04-28T17:09:28.383Z,3.60
2019-04-28T17:11:55.694Z,4.17
2019-04-28T17:14:22.973Z,3.40
2019-04-28T17:16:50.270Z,2.60
2019-04-28T17:19:17.579Z,2.22
2019-04-28T17:21:44.866Z,2.60
2019-04-28T17:24:12.174Z,1.82
2019-04-28T17:26:39.466Z,2.50
2019-04-28T17:29:06.761Z,3.25
2019-04-28T17:31:34.145Z,3.33
2019-04-28T17:34:01.510Z,3.33
2019-04-28T17:36:28.794Z,3.42
2019-04-28T17:38:56.106Z,3.55
2019-04-28T17:41:23.774Z,3.87
2019-04-28T17:43:51.060Z,4.33
2019-04-28T17:46:18.369Z,3.77
2019-04-28T17:48:53.438Z,3.95
2019-04-28T17:51:20.801Z,3.45
2019-04-28T17:53:48.118Z,3.30
2019-04-28T17:56:15.405Z,3.65
2019-04-28T17:58:42.685Z,3.20
2019-04-28T18:01:27.973Z,3.10
2019-04-28T18:04:02.896Z,3.77
2019-04-28T18:06:31.854Z,3.42
2019-04-28T18:08:59.153Z,3.72
2019-04-28T18:11:26.443Z,2.90
2019-04-28T18:13:53.762Z,2.60
2019-04-28T18:16:37.807Z,3.20
2019-04-28T18:19:06.753Z,4.22
2019-04-28T18:21:34.051Z,4.60
2019-04-28T18:24:01.336Z,5.22
2019-04-28T18:26:28.654Z,5.20
2019-04-28T18:28:55.956Z,5.90
2019-04-28T18:31:30.731Z,7.17
2019-04-28T18:34:15.818Z,5.60
2019-04-28T18:37:02.861Z,8.15
2019-04-28T18:39:48.136Z,7.85
2019-04-28T18:42:17.086Z,9.45
2019-04-28T18:44:44.374Z,6.95
2019-04-28T18:47:11.662Z,6.50
2019-04-28T18:49:38.974Z,5.72
2019-04-28T18:52:06.310Z,5.42
2019-04-28T18:54:33.550Z,5.67
2019-04-28T18:57:00.882Z,4.25
2019-04-28T18:59:28.168Z,4.80
2019-04-28T19:02:13.680Z,5.33
2019-04-28T19:04:41.034Z,4.70
2019-04-28T19:07:09.950Z,4.22
2019-04-28T19:09:57.043Z,4.37
2019-04-28T19:12:31.509Z,4.25
2019-04-28T19:15:16.604Z,5.08
2019-04-28T19:17:45.534Z,6.37
2019-04-28T19:20:13.805Z,6.85
2019-04-28T19:22:45.147Z,5.40
2019-04-28T19:25:12.438Z,5.10
2019-04-28T19:27:39.766Z,4.50
2019-04-28T19:30:07.041Z,4.75
2019-04-28T19:32:34.362Z,5.08
2019-04-28T19:35:01.654Z,5.58
2019-04-28T19:37:28.961Z,6.30
2019-04-28T19:39:56.258Z,9.28
2019-04-28T19:42:23.608Z,11.20
2019-04-28T19:44:50.893Z,6.78
2019-04-28T19:47:18.180Z,7.78
2019-04-28T19:49:45.506Z,12.68
2019-04-28T19:52:12.818Z,9.88
2019-04-28T19:54:41.780Z,5.20
2019-04-28T19:57:10.710Z,5.22
2019-04-28T19:59:55.688Z,5.62
2019-04-28T20:02:23.446Z,5.03
2019-04-28T20:04:50.747Z,5.22
2019-04-28T20:07:18.054Z,4.85
2019-04-28T20:09:45.343Z,5.45
2019-04-28T20:12:12.657Z,5.47
2019-04-28T20:14:39.946Z,5.25
2019-04-28T20:17:07.235Z,5.47
2019-04-28T20:19:34.557Z,5.00
2019-04-28T20:22:01.847Z,5.20
2019-04-28T20:24:29.133Z,6.15
2019-04-28T20:26:56.444Z,6.83
2019-04-28T20:29:23.743Z,5.78
2019-04-28T20:31:51.054Z,6.92
2019-04-28T20:34:18.333Z,5.30
2019-04-28T20:36:53.093Z,5.45
2019-04-28T20:39:22.035Z,4.50
2019-04-28T20:41:49.491Z,6.17
2019-04-28T20:44:16.800Z,7.08
2019-04-28T20:46:44.145Z,6.10
2019-04-28T20:49:11.368Z,6.28
2019-04-28T20:51:38.674Z,6.12
2019-04-28T20:54:05.958Z,5.47
2019-04-28T20:56:33.265Z,5.10
2019-04-28T20:59:00.562Z,6.60
2019-04-28T21:01:27.836Z,6.60
2019-04-28T21:03:55.153Z,7.20
2019-04-28T21:06:22.459Z,6.50
2019-04-28T21:08:49.793Z,6.30
2019-04-28T21:11:17.091Z,6.60
2019-04-28T21:13:44.378Z,6.15
2019-04-28T21:16:11.702Z,6.33
2019-04-28T21:18:38.977Z,8.65
2019-04-28T21:21:06.268Z,9.13
2019-04-28T21:23:33.602Z,7.60
2019-04-28T21:26:00.891Z,6.50
2019-04-28T21:28:28.184Z,7.35
2019-04-28T21:30:55.494Z,7.70
2019-04-28T21:33:25.470Z,7.83
2019-04-28T21:35:52.791Z,6.85
2019-04-28T21:38:20.089Z,6.70
2019-04-28T21:40:47.383Z,7.55
2019-04-28T21:43:16.327Z,6.80
2019-04-28T21:45:45.256Z,6.70
2019-04-28T21:48:14.174Z,7.35
2019-04-28T21:50:41.488Z,6.90
2019-04-28T21:53:08.778Z,6.30
2019-04-28T21:55:36.067Z,7.10
2019-04-28T21:58:03.454Z,5.87
2019-04-28T22:00:42.689Z,7.05
2019-04-28T22:03:10.010Z,6.53
2019-04-28T22:05:37.289Z,6.90
2019-04-28T22:08:04.578Z,6.97
2019-04-28T22:10:31.907Z,7.30
2019-04-28T22:12:59.184Z,6.60
2019-04-28T22:15:26.487Z,8.25
2019-04-28T22:17:53.874Z,7.28
2019-04-28T22:20:21.199Z,7.10
2019-04-28T22:22:48.497Z,7.92
2019-04-28T22:25:23.032Z,7.17
2019-04-28T22:27:50.351Z,6.95
2019-04-28T22:30:17.713Z,6.97
2019-04-28T22:32:44.992Z,6.80
2019-04-28T22:35:12.311Z,7.55
2019-04-28T22:37:39.607Z,7.80
2019-04-28T22:40:06.927Z,7.60
2019-04-28T22:42:34.234Z,7.95
2019-04-28T22:45:01.520Z,8.03
2019-04-28T22:47:28.839Z,8.00
2019-04-28T22:49:56.224Z,7.83
2019-04-28T22:52:23.528Z,7.95
2019-04-28T22:54:52.445Z,7.75
2019-04-28T22:57:21.399Z,8.05
2019-04-28T22:59:53.293Z,7.35
2019-04-28T23:02:22.482Z,8.60
2019-04-28T23:04:57.258Z,8.58
2019-04-28T23:07:24.714Z,8.73
2019-04-28T23:09:52.038Z,9.08
2019-04-28T23:12:19.355Z,7.35
2019-04-28T23:14:46.706Z,7.83
2019-04-28T23:17:15.631Z,7.87
2019-04-28T23:19:43.720Z,8.43
2019-04-28T23:22:15.391Z,8.83
2019-04-28T23:24:42.690Z,9.25
2019-04-28T23:27:10.008Z,7.87
2019-04-28T23:29:37.325Z,9.55
2019-04-28T23:32:04.690Z,8.85
2019-04-28T23:34:31.988Z,10.00
2019-04-28T23:36:59.304Z,9.73
2019-04-28T23:39:26.591Z,9.35
2019-04-28T23:41:58.367Z,9.73
2019-04-28T23:44:25.697Z,9.83
2019-04-28T23:46:57.603Z,9.13
2019-04-28T23:49:25.461Z,8.75
2019-04-28T23:52:00.130Z,8.70
2019-04-28T23:54:27.426Z,7.95
2019-04-28T23:56:54.720Z,8.58
2019-04-28T23:59:22.038Z,9.25
